sensor_id;sensor_type;location;lat;lon;timestamp;P1;durP1;ratioP1;P2;durP2;ratioP2
27013;SDS011;14556;52.222;4.510;2024-01-27T00:00:55;10.97;;;1.57;;
27013;SDS011;14556;52.222;4.510;2024-01-27T00:03:22;6.73;;;1.90;;
27013;SDS011;14556;52.222;4.510;2024-01-27T00:05:48;7.63;;;1.10;;
27013;SDS011;14556;52.222;4.510;2024-01-27T00:08:15;2.27;;;1.10;;
27013;SDS011;14556;52.222;4.510;2024-01-27T00:10:42;4.63;;;1.63;;
27013;SDS011;14556;52.222;4.510;2024-01-27T00:13:08;3.57;;;1.23;;
27013;SDS011;14556;52.222;4.510;2024-01-27T00:15:38;8.50;;;1.00;;
27013;SDS011;14556;52.222;4.510;2024-01-27T00:18:07;5.80;;;0.97;;
27013;SDS011;14556;52.222;4.510;2024-01-27T00:20:34;8.70;;;1.00;;
27013;SDS011;14556;52.222;4.510;2024-01-27T00:23:00;5.07;;;0.97;;
27013;SDS011;14556;52.222;4.510;2024-01-27T00:25:26;4.40;;;1.13;;
27013;SDS011;14556;52.222;4.510;2024-01-27T00:27:55;5.53;;;1.30;;
27013;SDS011;14556;52.222;4.510;2024-01-27T00:30:22;6.53;;;1.47;;
27013;SDS011;14556;52.222;4.510;2024-01-27T00:32:48;9.03;;;1.90;;
27013;SDS011;14556;52.222;4.510;2024-01-27T00:35:15;8.50;;;2.00;;
27013;SDS011;14556;52.222;4.510;2024-01-27T00:37:41;10.63;;;1.70;;
27013;SDS011;14556;52.222;4.510;2024-01-27T00:40:11;9.43;;;1.50;;
27013;SDS011;14556;52.222;4.510;2024-01-27T00:42:38;13.33;;;1.80;;
27013;SDS011;14556;52.222;4.510;2024-01-27T00:45:05;4.57;;;1.97;;
27013;SDS011;14556;52.222;4.510;2024-01-27T00:47:31;5.90;;;1.43;;
27013;SDS011;14556;52.222;4.510;2024-01-27T00:49:58;7.90;;;1.70;;
27013;SDS011;14556;52.222;4.510;2024-01-27T00:52:25;13.90;;;2.57;;
27013;SDS011;14556;52.222;4.510;2024-01-27T00:54:51;7.43;;;1.40;;
27013;SDS011;14556;52.222;4.510;2024-01-27T00:57:19;8.93;;;1.07;;
27013;SDS011;14556;52.222;4.510;2024-01-27T00:59:46;6.13;;;1.50;;
27013;SDS011;14556;52.222;4.510;2024-01-27T01:02:13;2.63;;;0.63;;
27013;SDS011;14556;52.222;4.510;2024-01-27T01:04:40;8.27;;;1.20;;
27013;SDS011;14556;52.222;4.510;2024-01-27T01:07:08;4.07;;;1.07;;
27013;SDS011;14556;52.222;4.510;2024-01-27T01:09:35;10.17;;;1.80;;
27013;SDS011;14556;52.222;4.510;2024-01-27T01:12:05;6.47;;;1.30;;
27013;SDS011;14556;52.222;4.510;2024-01-27T01:14:32;3.90;;;1.43;;
27013;SDS011;14556;52.222;4.510;2024-01-27T01:17:00;8.07;;;1.40;;
27013;SDS011;14556;52.222;4.510;2024-01-27T01:19:26;11.93;;;1.90;;
27013;SDS011;14556;52.222;4.510;2024-01-27T01:21:53;4.17;;;1.20;;
27013;SDS011;14556;52.222;4.510;2024-01-27T01:24:19;3.00;;;1.20;;
27013;SDS011;14556;52.222;4.510;2024-01-27T01:26:48;5.77;;;1.23;;
27013;SDS011;14556;52.222;4.510;2024-01-27T01:29:15;5.10;;;1.30;;
27013;SDS011;14556;52.222;4.510;2024-01-27T01:31:42;3.03;;;0.87;;
27013;SDS011;14556;52.222;4.510;2024-01-27T01:34:09;2.23;;;1.13;;
27013;SDS011;14556;52.222;4.510;2024-01-27T01:36:36;8.83;;;2.13;;
27013;SDS011;14556;52.222;4.510;2024-01-27T01:39:04;9.23;;;1.30;;
27013;SDS011;14556;52.222;4.510;2024-01-27T01:41:30;6.07;;;1.03;;
27013;SDS011;14556;52.222;4.510;2024-01-27T01:43:57;6.27;;;1.20;;
27013;SDS011;14556;52.222;4.510;2024-01-27T01:46:24;3.67;;;1.07;;
27013;SDS011;14556;52.222;4.510;2024-01-27T01:48:51;2.77;;;0.77;;
27013;SDS011;14556;52.222;4.510;2024-01-27T01:51:20;5.10;;;1.30;;
27013;SDS011;14556;52.222;4.510;2024-01-27T01:53:48;6.23;;;1.30;;
27013;SDS011;14556;52.222;4.510;2024-01-27T01:56:17;9.60;;;1.83;;
27013;SDS011;14556;52.222;4.510;2024-01-27T01:58:45;8.50;;;1.60;;
27013;SDS011;14556;52.222;4.510;2024-01-27T02:01:11;6.30;;;1.47;;
27013;SDS011;14556;52.222;4.510;2024-01-27T02:03:38;6.37;;;1.10;;
27013;SDS011;14556;52.222;4.510;2024-01-27T02:06:05;5.03;;;1.00;;
27013;SDS011;14556;52.222;4.510;2024-01-27T02:08:32;5.13;;;1.20;;
27013;SDS011;14556;52.222;4.510;2024-01-27T02:11:01;5.57;;;0.90;;
27013;SDS011;14556;52.222;4.510;2024-01-27T02:13:28;5.00;;;1.17;;
27013;SDS011;14556;52.222;4.510;2024-01-27T02:15:55;10.73;;;1.40;;
27013;SDS011;14556;52.222;4.510;2024-01-27T02:18:22;2.07;;;0.93;;
27013;SDS011;14556;52.222;4.510;2024-01-27T02:20:49;9.17;;;1.40;;
27013;SDS011;14556;52.222;4.510;2024-01-27T02:23:15;4.53;;;1.13;;
27013;SDS011;14556;52.222;4.510;2024-01-27T02:25:42;5.97;;;1.10;;
27013;SDS011;14556;52.222;4.510;2024-01-27T02:28:08;8.53;;;1.50;;
27013;SDS011;14556;52.222;4.510;2024-01-27T02:30:35;6.20;;;1.40;;
27013;SDS011;14556;52.222;4.510;2024-01-27T02:33:02;2.57;;;0.90;;
27013;SDS011;14556;52.222;4.510;2024-01-27T02:35:29;6.07;;;1.00;;
27013;SDS011;14556;52.222;4.510;2024-01-27T02:37:56;3.50;;;1.00;;
27013;SDS011;14556;52.222;4.510;2024-01-27T02:40:23;7.30;;;1.23;;
27013;SDS011;14556;52.222;4.510;2024-01-27T02:42:50;8.67;;;1.23;;
27013;SDS011;14556;52.222;4.510;2024-01-27T02:45:17;3.23;;;1.07;;
27013;SDS011;14556;52.222;4.510;2024-01-27T02:47:43;9.50;;;1.37;;
27013;SDS011;14556;52.222;4.510;2024-01-27T02:50:10;7.77;;;2.20;;
27013;SDS011;14556;52.222;4.510;2024-01-27T02:52:36;4.70;;;1.17;;
27013;SDS011;14556;52.222;4.510;2024-01-27T02:55:03;8.47;;;1.20;;
27013;SDS011;14556;52.222;4.510;2024-01-27T02:57:29;6.27;;;0.77;;
27013;SDS011;14556;52.222;4.510;2024-01-27T02:59:56;5.17;;;1.47;;
27013;SDS011;14556;52.222;4.510;2024-01-27T03:02:22;8.93;;;1.33;;
27013;SDS011;14556;52.222;4.510;2024-01-27T03:04:51;7.47;;;1.40;;
27013;SDS011;14556;52.222;4.510;2024-01-27T03:07:17;9.60;;;1.47;;
27013;SDS011;14556;52.222;4.510;2024-01-27T03:09:44;8.77;;;1.50;;
27013;SDS011;14556;52.222;4.510;2024-01-27T03:12:11;3.53;;;0.80;;
27013;SDS011;14556;52.222;4.510;2024-01-27T03:14:41;7.67;;;1.47;;
27013;SDS011;14556;52.222;4.510;2024-01-27T03:17:09;5.53;;;1.20;;
27013;SDS011;14556;52.222;4.510;2024-01-27T03:19:35;5.47;;;1.27;;
27013;SDS011;14556;52.222;4.510;2024-01-27T03:22:02;7.87;;;1.83;;
27013;SDS011;14556;52.222;4.510;2024-01-27T03:24:28;7.07;;;1.40;;
27013;SDS011;14556;52.222;4.510;2024-01-27T03:26:56;4.13;;;1.30;;
27013;SDS011;14556;52.222;4.510;2024-01-27T03:29:22;7.53;;;1.20;;
27013;SDS011;14556;52.222;4.510;2024-01-27T03:31:49;4.20;;;1.03;;
27013;SDS011;14556;52.222;4.510;2024-01-27T03:34:16;7.00;;;1.50;;
27013;SDS011;14556;52.222;4.510;2024-01-27T03:36:49;5.90;;;1.23;;
27013;SDS011;14556;52.222;4.510;2024-01-27T03:39:15;8.53;;;1.10;;
27013;SDS011;14556;52.222;4.510;2024-01-27T03:41:42;9.03;;;1.20;;
27013;SDS011;14556;52.222;4.510;2024-01-27T03:44:08;4.53;;;1.23;;
27013;SDS011;14556;52.222;4.510;2024-01-27T03:46:35;4.43;;;1.10;;
27013;SDS011;14556;52.222;4.510;2024-01-27T03:49:03;4.03;;;1.00;;
27013;SDS011;14556;52.222;4.510;2024-01-27T03:51:30;4.40;;;0.93;;
27013;SDS011;14556;52.222;4.510;2024-01-27T03:53:57;2.50;;;0.87;;
27013;SDS011;14556;52.222;4.510;2024-01-27T03:56:24;4.17;;;1.20;;
27013;SDS011;14556;52.222;4.510;2024-01-27T03:58:50;3.60;;;1.10;;
27013;SDS011;14556;52.222;4.510;2024-01-27T04:01:18;3.80;;;0.93;;
27013;SDS011;14556;52.222;4.510;2024-01-27T04:03:45;4.90;;;1.10;;
27013;SDS011;14556;52.222;4.510;2024-01-27T04:06:12;4.77;;;1.03;;
27013;SDS011;14556;52.222;4.510;2024-01-27T04:08:38;9.53;;;1.50;;
27013;SDS011;14556;52.222;4.510;2024-01-27T04:11:06;3.50;;;1.43;;
27013;SDS011;14556;52.222;4.510;2024-01-27T04:13:32;6.17;;;1.10;;
27013;SDS011;14556;52.222;4.510;2024-01-27T04:15:59;4.57;;;1.37;;
27013;SDS011;14556;52.222;4.510;2024-01-27T04:18:28;4.77;;;1.43;;
27013;SDS011;14556;52.222;4.510;2024-01-27T04:20:54;4.77;;;1.03;;
27013;SDS011;14556;52.222;4.510;2024-01-27T04:23:21;2.53;;;0.93;;
27013;SDS011;14556;52.222;4.510;2024-01-27T04:25:47;8.73;;;1.53;;
27013;SDS011;14556;52.222;4.510;2024-01-27T04:28:14;5.30;;;1.43;;
27013;SDS011;14556;52.222;4.510;2024-01-27T04:30:41;4.90;;;1.30;;
27013;SDS011;14556;52.222;4.510;2024-01-27T04:33:07;11.80;;;1.80;;
27013;SDS011;14556;52.222;4.510;2024-01-27T04:35:34;14.57;;;1.70;;
27013;SDS011;14556;52.222;4.510;2024-01-27T04:38:01;6.20;;;1.33;;
27013;SDS011;14556;52.222;4.510;2024-01-27T04:40:30;6.30;;;2.03;;
27013;SDS011;14556;52.222;4.510;2024-01-27T04:42:57;4.17;;;1.70;;
27013;SDS011;14556;52.222;4.510;2024-01-27T04:45:23;8.20;;;1.50;;
27013;SDS011;14556;52.222;4.510;2024-01-27T04:47:50;7.63;;;2.17;;
27013;SDS011;14556;52.222;4.510;2024-01-27T04:50:17;7.93;;;1.60;;
27013;SDS011;14556;52.222;4.510;2024-01-27T04:52:44;4.67;;;1.43;;
27013;SDS011;14556;52.222;4.510;2024-01-27T04:55:11;7.63;;;1.50;;
27013;SDS011;14556;52.222;4.510;2024-01-27T04:57:40;9.07;;;1.70;;
27013;SDS011;14556;52.222;4.510;2024-01-27T05:00:07;9.27;;;1.47;;
27013;SDS011;14556;52.222;4.510;2024-01-27T05:02:39;6.57;;;1.60;;
27013;SDS011;14556;52.222;4.510;2024-01-27T05:05:07;9.53;;;2.10;;
27013;SDS011;14556;52.222;4.510;2024-01-27T05:07:34;6.90;;;1.80;;
27013;SDS011;14556;52.222;4.510;2024-01-27T05:10:00;7.93;;;2.73;;
27013;SDS011;14556;52.222;4.510;2024-01-27T05:12:30;5.03;;;1.67;;
27013;SDS011;14556;52.222;4.510;2024-01-27T05:14:56;5.17;;;1.87;;
27013;SDS011;14556;52.222;4.510;2024-01-27T05:17:23;4.33;;;1.77;;
27013;SDS011;14556;52.222;4.510;2024-01-27T05:19:49;3.97;;;1.77;;
27013;SDS011;14556;52.222;4.510;2024-01-27T05:22:16;3.33;;;1.60;;
27013;SDS011;14556;52.222;4.510;2024-01-27T05:24:43;6.90;;;2.10;;
27013;SDS011;14556;52.222;4.510;2024-01-27T05:27:11;5.03;;;1.67;;
27013;SDS011;14556;52.222;4.510;2024-01-27T05:29:37;7.53;;;1.43;;
27013;SDS011;14556;52.222;4.510;2024-01-27T05:32:04;4.77;;;1.47;;
27013;SDS011;14556;52.222;4.510;2024-01-27T05:34:31;3.07;;;1.83;;
27013;SDS011;14556;52.222;4.510;2024-01-27T05:36:58;7.50;;;2.27;;
27013;SDS011;14556;52.222;4.510;2024-01-27T05:39:24;4.57;;;2.20;;
27013;SDS011;14556;52.222;4.510;2024-01-27T05:41:51;5.27;;;1.90;;
27013;SDS011;14556;52.222;4.510;2024-01-27T05:44:17;6.83;;;1.83;;
27013;SDS011;14556;52.222;4.510;2024-01-27T05:46:44;4.80;;;1.60;;
27013;SDS011;14556;52.222;4.510;2024-01-27T05:49:10;7.93;;;1.90;;
27013;SDS011;14556;52.222;4.510;2024-01-27T05:51:37;3.53;;;1.30;;
27013;SDS011;14556;52.222;4.510;2024-01-27T05:54:07;11.77;;;2.90;;
27013;SDS011;14556;52.222;4.510;2024-01-27T05:56:36;2.70;;;1.77;;
27013;SDS011;14556;52.222;4.510;2024-01-27T05:59:04;5.20;;;2.33;;
27013;SDS011;14556;52.222;4.510;2024-01-27T06:01:31;9.47;;;1.80;;
27013;SDS011;14556;52.222;4.510;2024-01-27T06:03:57;5.70;;;2.00;;
27013;SDS011;14556;52.222;4.510;2024-01-27T06:06:27;7.67;;;1.90;;
27013;SDS011;14556;52.222;4.510;2024-01-27T06:08:54;8.20;;;2.23;;
27013;SDS011;14556;52.222;4.510;2024-01-27T06:11:25;4.23;;;1.83;;
27013;SDS011;14556;52.222;4.510;2024-01-27T06:13:51;7.03;;;2.30;;
27013;SDS011;14556;52.222;4.510;2024-01-27T06:16:18;6.20;;;2.60;;
27013;SDS011;14556;52.222;4.510;2024-01-27T06:18:45;9.57;;;2.17;;
27013;SDS011;14556;52.222;4.510;2024-01-27T06:21:12;5.20;;;2.27;;
27013;SDS011;14556;52.222;4.510;2024-01-27T06:23:39;5.83;;;2.53;;
27013;SDS011;14556;52.222;4.510;2024-01-27T06:26:06;4.57;;;2.07;;
27013;SDS011;14556;52.222;4.510;2024-01-27T06:28:38;7.73;;;2.37;;
27013;SDS011;14556;52.222;4.510;2024-01-27T06:31:04;6.23;;;2.50;;
27013;SDS011;14556;52.222;4.510;2024-01-27T06:33:31;6.60;;;3.10;;
27013;SDS011;14556;52.222;4.510;2024-01-27T06:36:02;8.27;;;2.33;;
27013;SDS011;14556;52.222;4.510;2024-01-27T06:38:29;10.93;;;3.03;;
27013;SDS011;14556;52.222;4.510;2024-01-27T06:40:55;5.67;;;2.17;;
27013;SDS011;14556;52.222;4.510;2024-01-27T06:43:22;4.23;;;2.40;;
27013;SDS011;14556;52.222;4.510;2024-01-27T06:45:49;9.17;;;2.50;;
27013;SDS011;14556;52.222;4.510;2024-01-27T06:48:16;8.37;;;2.97;;
27013;SDS011;14556;52.222;4.510;2024-01-27T06:50:43;7.73;;;2.80;;
27013;SDS011;14556;52.222;4.510;2024-01-27T06:53:10;7.70;;;2.50;;
27013;SDS011;14556;52.222;4.510;2024-01-27T06:55:37;9.60;;;2.70;;
27013;SDS011;14556;52.222;4.510;2024-01-27T06:58:09;5.83;;;2.30;;
27013;SDS011;14556;52.222;4.510;2024-01-27T07:00:35;7.00;;;2.73;;
27013;SDS011;14556;52.222;4.510;2024-01-27T07:03:02;8.67;;;3.20;;
27013;SDS011;14556;52.222;4.510;2024-01-27T07:05:29;5.13;;;2.70;;
27013;SDS011;14556;52.222;4.510;2024-01-27T07:07:56;6.70;;;2.07;;
27013;SDS011;14556;52.222;4.510;2024-01-27T07:10:22;5.80;;;2.63;;
27013;SDS011;14556;52.222;4.510;2024-01-27T07:12:51;7.20;;;2.90;;
27013;SDS011;14556;52.222;4.510;2024-01-27T07:15:17;8.03;;;2.70;;
27013;SDS011;14556;52.222;4.510;2024-01-27T07:17:47;8.00;;;3.27;;
27013;SDS011;14556;52.222;4.510;2024-01-27T07:20:13;10.73;;;2.37;;
27013;SDS011;14556;52.222;4.510;2024-01-27T07:22:39;4.57;;;2.20;;
27013;SDS011;14556;52.222;4.510;2024-01-27T07:25:06;4.57;;;2.73;;
27013;SDS011;14556;52.222;4.510;2024-01-27T07:27:34;7.63;;;2.67;;
27013;SDS011;14556;52.222;4.510;2024-01-27T07:30:01;3.90;;;2.40;;
27013;SDS011;14556;52.222;4.510;2024-01-27T07:32:28;8.60;;;2.90;;
27013;SDS011;14556;52.222;4.510;2024-01-27T07:34:55;6.80;;;2.53;;
27013;SDS011;14556;52.222;4.510;2024-01-27T07:37:22;9.73;;;2.97;;
27013;SDS011;14556;52.222;4.510;2024-01-27T07:39:48;7.77;;;3.03;;
27013;SDS011;14556;52.222;4.510;2024-01-27T07:42:15;8.90;;;2.77;;
27013;SDS011;14556;52.222;4.510;2024-01-27T07:44:42;6.53;;;2.87;;
27013;SDS011;14556;52.222;4.510;2024-01-27T07:47:10;8.07;;;3.40;;
27013;SDS011;14556;52.222;4.510;2024-01-27T07:49:36;13.83;;;3.57;;
27013;SDS011;14556;52.222;4.510;2024-01-27T07:52:03;5.27;;;2.60;;
27013;SDS011;14556;52.222;4.510;2024-01-27T07:54:30;7.03;;;3.20;;
27013;SDS011;14556;52.222;4.510;2024-01-27T07:56:58;5.03;;;2.60;;
27013;SDS011;14556;52.222;4.510;2024-01-27T07:59:24;8.80;;;3.27;;
27013;SDS011;14556;52.222;4.510;2024-01-27T08:01:51;6.13;;;2.37;;
27013;SDS011;14556;52.222;4.510;2024-01-27T08:04:17;9.97;;;3.30;;
27013;SDS011;14556;52.222;4.510;2024-01-27T08:06:51;6.30;;;2.57;;
27013;SDS011;14556;52.222;4.510;2024-01-27T08:09:19;11.93;;;2.87;;
27013;SDS011;14556;52.222;4.510;2024-01-27T08:11:46;6.13;;;3.00;;
27013;SDS011;14556;52.222;4.510;2024-01-27T08:14:18;4.63;;;2.77;;
27013;SDS011;14556;52.222;4.510;2024-01-27T08:16:45;7.17;;;3.30;;
27013;SDS011;14556;52.222;4.510;2024-01-27T08:19:12;7.40;;;4.13;;
27013;SDS011;14556;52.222;4.510;2024-01-27T08:21:40;8.57;;;3.40;;
27013;SDS011;14556;52.222;4.510;2024-01-27T08:24:08;10.87;;;3.53;;
27013;SDS011;14556;52.222;4.510;2024-01-27T08:26:35;9.13;;;3.00;;
27013;SDS011;14556;52.222;4.510;2024-01-27T08:29:04;13.23;;;4.30;;
27013;SDS011;14556;52.222;4.510;2024-01-27T08:31:30;5.00;;;2.60;;
27013;SDS011;14556;52.222;4.510;2024-01-27T08:33:57;10.70;;;3.47;;
27013;SDS011;14556;52.222;4.510;2024-01-27T08:36:24;13.43;;;3.97;;
27013;SDS011;14556;52.222;4.510;2024-01-27T08:38:51;14.00;;;3.80;;
27013;SDS011;14556;52.222;4.510;2024-01-27T08:41:22;8.67;;;3.57;;
27013;SDS011;14556;52.222;4.510;2024-01-27T08:43:53;7.37;;;4.27;;
27013;SDS011;14556;52.222;4.510;2024-01-27T08:46:21;5.13;;;3.57;;
27013;SDS011;14556;52.222;4.510;2024-01-27T08:48:48;5.63;;;3.53;;
27013;SDS011;14556;52.222;4.510;2024-01-27T08:51:15;10.60;;;4.00;;
27013;SDS011;14556;52.222;4.510;2024-01-27T08:53:44;9.53;;;4.20;;
27013;SDS011;14556;52.222;4.510;2024-01-27T08:56:15;8.37;;;3.87;;
27013;SDS011;14556;52.222;4.510;2024-01-27T08:58:42;9.17;;;4.17;;
27013;SDS011;14556;52.222;4.510;2024-01-27T09:01:11;11.40;;;4.97;;
27013;SDS011;14556;52.222;4.510;2024-01-27T09:03:41;13.10;;;5.00;;
27013;SDS011;14556;52.222;4.510;2024-01-27T09:06:07;14.33;;;4.60;;
27013;SDS011;14556;52.222;4.510;2024-01-27T09:08:36;10.03;;;4.23;;
27013;SDS011;14556;52.222;4.510;2024-01-27T09:11:03;12.10;;;4.90;;
27013;SDS011;14556;52.222;4.510;2024-01-27T09:13:29;8.83;;;3.57;;
27013;SDS011;14556;52.222;4.510;2024-01-27T09:15:56;7.63;;;4.43;;
27013;SDS011;14556;52.222;4.510;2024-01-27T09:18:23;11.33;;;5.03;;
27013;SDS011;14556;52.222;4.510;2024-01-27T09:20:53;11.50;;;5.13;;
27013;SDS011;14556;52.222;4.510;2024-01-27T09:23:20;9.37;;;4.87;;
27013;SDS011;14556;52.222;4.510;2024-01-27T09:25:47;11.30;;;4.50;;
27013;SDS011;14556;52.222;4.510;2024-01-27T09:28:15;19.60;;;5.47;;
27013;SDS011;14556;52.222;4.510;2024-01-27T09:30:42;11.37;;;5.03;;
27013;SDS011;14556;52.222;4.510;2024-01-27T09:33:09;12.37;;;4.90;;
27013;SDS011;14556;52.222;4.510;2024-01-27T09:35:36;15.63;;;5.00;;
27013;SDS011;14556;52.222;4.510;2024-01-27T09:38:02;13.67;;;5.00;;
27013;SDS011;14556;52.222;4.510;2024-01-27T09:40:32;10.67;;;5.13;;
27013;SDS011;14556;52.222;4.510;2024-01-27T09:42:59;8.90;;;5.17;;
27013;SDS011;14556;52.222;4.510;2024-01-27T09:45:27;12.23;;;5.33;;
27013;SDS011;14556;52.222;4.510;2024-01-27T09:47:56;9.60;;;5.77;;
27013;SDS011;14556;52.222;4.510;2024-01-27T09:50:23;14.50;;;5.50;;
27013;SDS011;14556;52.222;4.510;2024-01-27T09:52:52;13.13;;;5.37;;
27013;SDS011;14556;52.222;4.510;2024-01-27T09:55:18;9.23;;;4.83;;
27013;SDS011;14556;52.222;4.510;2024-01-27T09:57:45;12.47;;;5.33;;
27013;SDS011;14556;52.222;4.510;2024-01-27T10:00:20;10.40;;;5.47;;
27013;SDS011;14556;52.222;4.510;2024-01-27T10:02:47;9.57;;;5.37;;
27013;SDS011;14556;52.222;4.510;2024-01-27T10:05:17;9.87;;;4.60;;
27013;SDS011;14556;52.222;4.510;2024-01-27T10:07:44;9.30;;;5.53;;
27013;SDS011;14556;52.222;4.510;2024-01-27T10:10:10;8.63;;;5.50;;
27013;SDS011;14556;52.222;4.510;2024-01-27T10:12:40;11.53;;;5.00;;
27013;SDS011;14556;52.222;4.510;2024-01-27T10:15:20;12.77;;;5.93;;
27013;SDS011;14556;52.222;4.510;2024-01-27T10:17:47;17.40;;;5.83;;
27013;SDS011;14556;52.222;4.510;2024-01-27T10:20:14;10.77;;;5.33;;
27013;SDS011;14556;52.222;4.510;2024-01-27T10:22:42;10.50;;;5.20;;
27013;SDS011;14556;52.222;4.510;2024-01-27T10:25:11;10.13;;;4.60;;
27013;SDS011;14556;52.222;4.510;2024-01-27T10:27:37;13.93;;;4.93;;
27013;SDS011;14556;52.222;4.510;2024-01-27T10:30:05;14.40;;;5.53;;
27013;SDS011;14556;52.222;4.510;2024-01-27T10:32:33;10.50;;;5.97;;
27013;SDS011;14556;52.222;4.510;2024-01-27T10:35:04;13.87;;;5.47;;
27013;SDS011;14556;52.222;4.510;2024-01-27T10:37:32;12.77;;;5.47;;
27013;SDS011;14556;52.222;4.510;2024-01-27T10:39:59;13.03;;;5.30;;
27013;SDS011;14556;52.222;4.510;2024-01-27T10:42:28;12.97;;;6.53;;
27013;SDS011;14556;52.222;4.510;2024-01-27T10:44:59;14.30;;;5.37;;
27013;SDS011;14556;52.222;4.510;2024-01-27T10:47:29;18.13;;;5.17;;
27013;SDS011;14556;52.222;4.510;2024-01-27T10:49:58;12.80;;;5.67;;
27013;SDS011;14556;52.222;4.510;2024-01-27T10:52:28;13.03;;;5.33;;
27013;SDS011;14556;52.222;4.510;2024-01-27T10:54:57;10.37;;;5.40;;
27013;SDS011;14556;52.222;4.510;2024-01-27T10:57:24;11.20;;;5.03;;
27013;SDS011;14556;52.222;4.510;2024-01-27T10:59:55;8.57;;;4.63;;
27013;SDS011;14556;52.222;4.510;2024-01-27T11:02:22;11.47;;;4.43;;
27013;SDS011;14556;52.222;4.510;2024-01-27T11:04:48;14.43;;;5.33;;
27013;SDS011;14556;52.222;4.510;2024-01-27T11:07:21;15.40;;;4.13;;
27013;SDS011;14556;52.222;4.510;2024-01-27T11:09:50;16.27;;;4.30;;
27013;SDS011;14556;52.222;4.510;2024-01-27T11:12:21;9.07;;;4.57;;
27013;SDS011;14556;52.222;4.510;2024-01-27T11:14:48;12.50;;;4.30;;
27013;SDS011;14556;52.222;4.510;2024-01-27T11:17:15;11.20;;;3.90;;
27013;SDS011;14556;52.222;4.510;2024-01-27T11:19:44;7.33;;;3.93;;
27013;SDS011;14556;52.222;4.510;2024-01-27T11:22:46;7.93;;;4.07;;
27013;SDS011;14556;52.222;4.510;2024-01-27T11:27:40;10.27;;;4.20;;
27013;SDS011;14556;52.222;4.510;2024-01-27T11:32:49;14.13;;;4.10;;
27013;SDS011;14556;52.222;4.510;2024-01-27T11:35:17;9.00;;;3.57;;
27013;SDS011;14556;52.222;4.510;2024-01-27T11:37:44;13.00;;;3.57;;
27013;SDS011;14556;52.222;4.510;2024-01-27T11:40:11;7.00;;;3.37;;
27013;SDS011;14556;52.222;4.510;2024-01-27T11:42:38;6.33;;;3.20;;
27013;SDS011;14556;52.222;4.510;2024-01-27T11:45:08;11.10;;;3.00;;
27013;SDS011;14556;52.222;4.510;2024-01-27T11:47:35;16.30;;;3.10;;
27013;SDS011;14556;52.222;4.510;2024-01-27T11:50:04;8.03;;;3.07;;
27013;SDS011;14556;52.222;4.510;2024-01-27T11:52:31;9.90;;;2.60;;
27013;SDS011;14556;52.222;4.510;2024-01-27T11:54:58;13.63;;;2.50;;
27013;SDS011;14556;52.222;4.510;2024-01-27T11:57:26;6.40;;;1.80;;
27013;SDS011;14556;52.222;4.510;2024-01-27T11:59:55;9.57;;;2.30;;
27013;SDS011;14556;52.222;4.510;2024-01-27T12:02:22;11.63;;;2.20;;
27013;SDS011;14556;52.222;4.510;2024-01-27T12:04:48;7.50;;;2.00;;
27013;SDS011;14556;52.222;4.510;2024-01-27T12:07:16;8.07;;;1.60;;
27013;SDS011;14556;52.222;4.510;2024-01-27T12:09:51;8.57;;;1.83;;
27013;SDS011;14556;52.222;4.510;2024-01-27T12:12:18;11.27;;;2.40;;
27013;SDS011;14556;52.222;4.510;2024-01-27T12:14:45;6.50;;;2.03;;
27013;SDS011;14556;52.222;4.510;2024-01-27T12:17:14;8.27;;;1.90;;
27013;SDS011;14556;52.222;4.510;2024-01-27T12:19:45;7.87;;;2.50;;
27013;SDS011;14556;52.222;4.510;2024-01-27T12:22:20;9.03;;;2.00;;
27013;SDS011;14556;52.222;4.510;2024-01-27T12:24:48;5.87;;;1.37;;
27013;SDS011;14556;52.222;4.510;2024-01-27T12:27:16;9.07;;;2.10;;
27013;SDS011;14556;52.222;4.510;2024-01-27T12:29:44;6.33;;;1.40;;
27013;SDS011;14556;52.222;4.510;2024-01-27T12:32:12;6.07;;;1.93;;
27013;SDS011;14556;52.222;4.510;2024-01-27T12:34:42;3.30;;;1.33;;
27013;SDS011;14556;52.222;4.510;2024-01-27T12:37:10;5.47;;;1.67;;
27013;SDS011;14556;52.222;4.510;2024-01-27T12:39:37;4.27;;;1.20;;
27013;SDS011;14556;52.222;4.510;2024-01-27T12:42:05;3.37;;;1.43;;
27013;SDS011;14556;52.222;4.510;2024-01-27T12:44:32;12.20;;;1.70;;
27013;SDS011;14556;52.222;4.510;2024-01-27T12:46:59;2.37;;;1.00;;
27013;SDS011;14556;52.222;4.510;2024-01-27T12:49:26;7.97;;;1.50;;
27013;SDS011;14556;52.222;4.510;2024-01-27T12:51:53;4.30;;;1.07;;
27013;SDS011;14556;52.222;4.510;2024-01-27T12:54:20;8.60;;;1.77;;
27013;SDS011;14556;52.222;4.510;2024-01-27T12:56:47;5.17;;;1.50;;
27013;SDS011;14556;52.222;4.510;2024-01-27T12:59:14;2.93;;;1.00;;
27013;SDS011;14556;52.222;4.510;2024-01-27T13:01:44;5.17;;;1.90;;
27013;SDS011;14556;52.222;4.510;2024-01-27T13:04:13;5.00;;;1.13;;
27013;SDS011;14556;52.222;4.510;2024-01-27T13:06:40;5.13;;;1.13;;
27013;SDS011;14556;52.222;4.510;2024-01-27T13:09:07;9.67;;;1.70;;
27013;SDS011;14556;52.222;4.510;2024-01-27T13:11:34;4.70;;;1.03;;
27013;SDS011;14556;52.222;4.510;2024-01-27T13:14:00;9.83;;;1.53;;
27013;SDS011;14556;52.222;4.510;2024-01-27T13:16:27;4.47;;;1.10;;
27013;SDS011;14556;52.222;4.510;2024-01-27T13:18:53;3.27;;;0.90;;
27013;SDS011;14556;52.222;4.510;2024-01-27T13:21:22;8.47;;;1.10;;
27013;SDS011;14556;52.222;4.510;2024-01-27T13:23:49;7.33;;;1.43;;
27013;SDS011;14556;52.222;4.510;2024-01-27T13:26:18;6.23;;;1.10;;
27013;SDS011;14556;52.222;4.510;2024-01-27T13:28:45;5.50;;;1.10;;
27013;SDS011;14556;52.222;4.510;2024-01-27T13:31:12;8.00;;;2.30;;
27013;SDS011;14556;52.222;4.510;2024-01-27T13:33:39;6.07;;;1.53;;
27013;SDS011;14556;52.222;4.510;2024-01-27T13:36:06;7.17;;;1.23;;
27013;SDS011;14556;52.222;4.510;2024-01-27T13:38:35;8.93;;;1.50;;
27013;SDS011;14556;52.222;4.510;2024-01-27T13:41:03;6.17;;;1.83;;
27013;SDS011;14556;52.222;4.510;2024-01-27T13:43:29;4.70;;;1.57;;
27013;SDS011;14556;52.222;4.510;2024-01-27T13:45:56;3.83;;;0.93;;
27013;SDS011;14556;52.222;4.510;2024-01-27T13:48:22;3.73;;;1.20;;
27013;SDS011;14556;52.222;4.510;2024-01-27T13:50:49;12.33;;;2.30;;
27013;SDS011;14556;52.222;4.510;2024-01-27T13:53:16;5.10;;;1.50;;
27013;SDS011;14556;52.222;4.510;2024-01-27T13:55:47;9.10;;;1.90;;
27013;SDS011;14556;52.222;4.510;2024-01-27T13:58:14;8.47;;;1.23;;
27013;SDS011;14556;52.222;4.510;2024-01-27T14:00:40;4.33;;;1.10;;
27013;SDS011;14556;52.222;4.510;2024-01-27T14:03:07;7.03;;;0.97;;
27013;SDS011;14556;52.222;4.510;2024-01-27T14:05:33;6.27;;;1.00;;
27013;SDS011;14556;52.222;4.510;2024-01-27T14:08:00;9.60;;;1.67;;
27013;SDS011;14556;52.222;4.510;2024-01-27T14:10:26;6.80;;;1.67;;
27013;SDS011;14556;52.222;4.510;2024-01-27T14:12:53;4.23;;;0.90;;
27013;SDS011;14556;52.222;4.510;2024-01-27T14:15:20;6.40;;;1.30;;
27013;SDS011;14556;52.222;4.510;2024-01-27T14:17:47;5.13;;;1.17;;
27013;SDS011;14556;52.222;4.510;2024-01-27T14:20:14;7.47;;;1.23;;
27013;SDS011;14556;52.222;4.510;2024-01-27T14:22:43;6.90;;;1.17;;
27013;SDS011;14556;52.222;4.510;2024-01-27T14:25:12;3.43;;;1.07;;
27013;SDS011;14556;52.222;4.510;2024-01-27T14:27:39;9.67;;;1.43;;
27013;SDS011;14556;52.222;4.510;2024-01-27T14:30:07;5.97;;;1.10;;
27013;SDS011;14556;52.222;4.510;2024-01-27T14:32:33;10.30;;;1.47;;
27013;SDS011;14556;52.222;4.510;2024-01-27T14:35:00;8.70;;;1.40;;
27013;SDS011;14556;52.222;4.510;2024-01-27T14:37:27;6.23;;;1.70;;
27013;SDS011;14556;52.222;4.510;2024-01-27T14:39:54;8.90;;;1.10;;
27013;SDS011;14556;52.222;4.510;2024-01-27T14:42:21;6.80;;;1.13;;
27013;SDS011;14556;52.222;4.510;2024-01-27T14:44:48;7.80;;;1.17;;
27013;SDS011;14556;52.222;4.510;2024-01-27T14:47:22;5.80;;;1.17;;
27013;SDS011;14556;52.222;4.510;2024-01-27T14:49:48;3.03;;;1.07;;
27013;SDS011;14556;52.222;4.510;2024-01-27T14:52:15;5.93;;;1.07;;